Jupiter, FL (33458)

9:25 AM EDT on September 20, 2014 (GMT -0400)
Pennock Ln. | Change Station
CLOSE
Current Station
Personal Weather Station
Location: Jupiter, FL
Elevation: 20 ft
Nearby Weather Stations

Elev 20 ft 26.94 °N, 80.11 °W | Updated 0 second ago

Mostly Cloudy
Mostly Cloudy
75.5 °F
Feels Like 75 °F
N
0.2
Wind Variable Wind from SE
Gusts 1.2 mph

Today
High -- | Low -- °F
--% Chance of Precip.
Yesterday
High -- | Low -- °F
Precip. -- in
7:08 AM 7:19 PM
Waning Crescent, 12% visible
Pressure 29.92 in
Visibility 10.0 miles
Clouds Few 2500 ft
Mostly Cloudy 17000 ft
Mostly Cloudy 25000 ft
Heat Index 75 °F
Dew Point 73 °F
Humidity 93%
Rainfall 0.05 in
Snow Depth Not available.
UV 1.3 out of 12
Pollen 3.00 out of 12
Ozone Good
PM2.5 Good
Flu Activity Not available.
METAR KPBI 201253Z 24003KT 10SM FEW025 BKN170 BKN250 25/24 A2992 RMK AO2 SLP130 T02500239 $

More Conditions Fewer Conditions

Pressure 29.92 in
Visibility 10.0 miles
Clouds Few 2500 ft
Mostly Cloudy 17000 ft
Mostly Cloudy 25000 ft
Heat Index 75 °F
Dew Point 73 °F
Humidity 93%
Rainfall 0.05 in
Snow Depth Not available.
UV 1.3 out of 12
Pollen 3.00 out of 12
Ozone Good
PM2.5 Good
Flu Activity Not available.
METAR KPBI 201253Z 24003KT 10SM FEW025 BKN170 BKN250 25/24 A2992 RMK AO2 SLP130 T02500239 $

More Conditions Fewer Conditions

10-Day Weather Forecast

Almanac

Astronomy

Sep. 20, 2014 Rise Set
Actual Time 7:08 AM EDT 7:19 PM EDT
Civil Twilight 6:44 AM EDT 7:42 PM EDT
Nautical Twilight 6:17 AM EDT 8:09 PM EDT
Astronomical Twilight 5:50 AM EDT 8:36 PM EDT
Moon 4:00 AM EDT 5:09 PM EDT
Length of Visible Light 12h 57m
Length of Day
12h 11m
Tomorrow will be 1m 34s shorter.
Waning Crescent, 12% of the Moon is Illuminated
Today
Waning Crescent
Sep 24
New
Oct 1
First Quarter
Oct 8
Full
Oct 15
Last Quarter

Today's Extremes

State Highs State Lows

Community

WunderPhotos

Upload Photos

1,754,857 photos uploaded!

Nearby

Air Quality

  Air Quality AQ Index Pollutant
Yesterday Good
PM2.5
Yesterday Good
OZONE
Current Good
PM2.5
Current Good
OZONE
Saturday Good
OZONE
Saturday Good
PM2.5
Sunday Good
OZONE
Sunday Good
PM2.5
Monday Good
OZONE
Monday Good
PM2.5

Snow Depth

Station Depth Elevation
No new snow has been reported.

Earthquake Activity

City Distance Mag. Time & Date
No recent earthquake activity has been reported nearby.
Minimum magnitude displayed is 2.5.

Coastal Water Temperatures

Place Temperature
Lake Worth, FL 84.9 °F
Virginia Key, FL 84.0 °F

Nearby Weather Stations